Time;durP1;ratioP1;P1;durP2;ratioP2;P2;SDS_P1;SDS_P2;PMS_P1;PMS_P2;Temp;Humidity;BMP_temperature;BMP_pressure;BME280_temperature;BME280_humidity;BME280_pressure;Samples;Min_cycle;Max_cycle;Signal;HPM_P1;HPM_P2
2023/06/25 00:00:55;;;;;;;7.07;5.75;;;;;;;;;;4961535;28;20153;-70
2023/06/25 00:03:21;;;;;;;6.47;5.88;;;;;;;;;;4960801;28;20134;-69
2023/06/25 00:05:47;;;;;;;7.18;6.05;;;;;;;;;;5018538;28;20088;-69
2023/06/25 00:08:13;;;;;;;6.05;5.45;;;;;;;;;;5055785;28;20049;-69
2023/06/25 00:10:39;;;;;;;8.18;6.63;;;;;;;;;;5019631;28;20047;-69
2023/06/25 00:13:05;;;;;;;7.95;6.72;;;;;;;;;;5034939;28;20048;-69
2023/06/25 00:15:31;;;;;;;8.20;6.22;;;;;;;;;;5027980;28;20062;-69
2023/06/25 00:17:57;;;;;;;7.00;6.30;;;;;;;;;;5035032;28;20083;-69
2023/06/25 00:20:24;;;;;;;8.32;6.78;;;;;;;;;;5029786;28;20043;-69
2023/06/25 00:22:50;;;;;;;8.57;6.10;;;;;;;;;;5014605;28;20402;-69
2023/06/25 00:25:17;;;;;;;8.60;6.80;;;;;;;;;;5032497;28;20047;-68
2023/06/25 00:27:47;;;;;;;6.97;6.28;;;;;;;;;;4960961;28;20051;-69
2023/06/25 00:30:13;;;;;;;9.48;6.80;;;;;;;;;;5067019;28;20533;-69
2023/06/25 00:32:39;;;;;;;8.55;6.15;;;;;;;;;;4969229;28;20044;-69
2023/06/25 00:35:06;;;;;;;8.80;6.90;;;;;;;;;;4999220;28;20802;-69
2023/06/25 00:37:36;;;;;;;8.02;7.20;;;;;;;;;;5016555;28;20126;-70
2023/06/25 00:40:04;;;;;;;8.73;7.30;;;;;;;;;;5062973;28;20125;-69
2023/06/25 00:42:40;;;;;;;8.93;7.10;;;;;;;;;;5037436;28;20054;-69
2023/06/25 00:45:07;;;;;;;10.63;8.00;;;;;;;;;;5037660;28;20050;-69
2023/06/25 00:47:33;;;;;;;9.70;8.25;;;;;;;;;;4966807;28;20121;-69
2023/06/25 00:50:00;;;;;;;9.63;7.75;;;;;;;;;;5030782;28;20138;-69
2023/06/25 00:52:26;;;;;;;10.23;8.05;;;;;;;;;;5034063;28;20062;-69
2023/06/25 00:54:52;;;;;;;9.63;7.55;;;;;;;;;;4963545;28;20521;-70
2023/06/25 00:57:18;;;;;;;10.93;8.10;;;;;;;;;;5020164;28;20518;-69
2023/06/25 00:59:45;;;;;;;9.07;7.80;;;;;;;;;;4983963;28;20498;-69
2023/06/25 01:02:22;;;;;;;9.63;7.68;;;;;;;;;;4961480;28;20038;-69
2023/06/25 01:04:58;;;;;;;10.35;8.32;;;;;;;;;;5027160;28;20104;-69
2023/06/25 01:07:25;;;;;;;11.10;8.25;;;;;;;;;;4961930;28;20039;-69
2023/06/25 01:09:51;;;;;;;10.77;8.15;;;;;;;;;;4964764;28;20043;-70
2023/06/25 01:12:17;;;;;;;13.07;9.10;;;;;;;;;;5064211;28;20042;-69
2023/06/25 01:14:43;;;;;;;10.10;8.40;;;;;;;;;;4984632;28;20035;-69
2023/06/25 01:17:10;;;;;;;11.75;8.93;;;;;;;;;;4971917;28;20469;-69
2023/06/25 01:19:36;;;;;;;10.77;9.25;;;;;;;;;;5057317;28;20403;-69
2023/06/25 01:22:03;;;;;;;10.90;8.98;;;;;;;;;;5023873;28;20103;-69
2023/06/25 01:24:30;;;;;;;12.40;9.45;;;;;;;;;;5027856;28;20050;-69
2023/06/25 01:26:56;;;;;;;10.63;8.82;;;;;;;;;;4976003;28;20097;-69
2023/06/25 01:29:23;;;;;;;10.70;9.60;;;;;;;;;;4979740;28;20047;-69
2023/06/25 01:31:51;;;;;;;10.70;9.50;;;;;;;;;;4970439;28;20158;-70
2023/06/25 01:34:20;;;;;;;12.07;9.23;;;;;;;;;;4977873;28;20406;-72
2023/06/25 01:36:49;;;;;;;10.30;8.95;;;;;;;;;;4973497;28;20043;-69
2023/06/25 01:39:18;;;;;;;12.00;9.77;;;;;;;;;;5025250;28;20582;-69
2023/06/25 01:41:46;;;;;;;13.20;10.00;;;;;;;;;;4969216;28;20116;-70
2023/06/25 01:44:15;;;;;;;11.88;10.13;;;;;;;;;;4965166;28;20523;-69
2023/06/25 01:46:41;;;;;;;12.65;9.70;;;;;;;;;;4967497;28;20477;-70
2023/06/25 01:49:07;;;;;;;11.50;9.70;;;;;;;;;;5028382;28;20058;-69
2023/06/25 01:51:33;;;;;;;12.70;9.70;;;;;;;;;;5030453;28;20058;-70
2023/06/25 01:53:59;;;;;;;10.50;8.52;;;;;;;;;;4959759;28;20043;-69
2023/06/25 01:56:25;;;;;;;12.77;10.27;;;;;;;;;;4971538;28;20043;-69
2023/06/25 01:58:54;;;;;;;13.38;9.98;;;;;;;;;;4967315;28;20039;-69
2023/06/25 02:01:21;;;;;;;11.05;9.23;;;;;;;;;;4964979;28;20046;-69
2023/06/25 02:03:47;;;;;;;14.38;11.23;;;;;;;;;;4966830;28;20050;-69
2023/06/25 02:06:14;;;;;;;11.75;9.70;;;;;;;;;;5032803;28;20122;-69
2023/06/25 02:08:40;;;;;;;13.15;10.63;;;;;;;;;;4986607;28;20078;-69
2023/06/25 02:11:06;;;;;;;13.48;10.13;;;;;;;;;;4991647;28;20108;-69
2023/06/25 02:13:33;;;;;;;11.30;9.70;;;;;;;;;;4970752;28;20043;-69
2023/06/25 02:15:59;;;;;;;11.43;10.10;;;;;;;;;;5005201;28;20099;-69
2023/06/25 02:18:25;;;;;;;10.50;9.40;;;;;;;;;;4967285;28;20069;-69
2023/06/25 02:20:51;;;;;;;12.65;10.30;;;;;;;;;;4967100;28;20039;-69
2023/06/25 02:23:18;;;;;;;11.75;10.02;;;;;;;;;;5033990;28;20047;-69
2023/06/25 02:25:44;;;;;;;13.80;9.90;;;;;;;;;;5036839;28;20429;-69
2023/06/25 02:28:10;;;;;;;11.10;9.45;;;;;;;;;;5028382;28;20047;-68
2023/06/25 02:30:36;;;;;;;14.38;9.70;;;;;;;;;;5021244;28;20062;-69
2023/06/25 02:33:02;;;;;;;13.18;10.40;;;;;;;;;;4971535;28;20093;-69
2023/06/25 02:35:28;;;;;;;12.20;10.35;;;;;;;;;;5020631;28;20053;-69
2023/06/25 02:37:54;;;;;;;12.07;9.90;;;;;;;;;;4967732;28;20430;-69
2023/06/25 02:40:20;;;;;;;12.82;9.15;;;;;;;;;;4969520;28;20039;-69
2023/06/25 02:42:46;;;;;;;13.40;11.07;;;;;;;;;;5034074;28;20059;-69
2023/06/25 02:45:12;;;;;;;13.75;10.00;;;;;;;;;;5019687;28;20130;-69
2023/06/25 02:47:38;;;;;;;12.50;10.07;;;;;;;;;;5032522;28;20055;-70
2023/06/25 02:50:05;;;;;;;11.32;9.82;;;;;;;;;;4991120;28;20055;-69
2023/06/25 02:52:31;;;;;;;11.25;10.05;;;;;;;;;;5025975;28;20084;-69
2023/06/25 02:54:57;;;;;;;12.32;10.82;;;;;;;;;;5024850;28;20054;-69
2023/06/25 02:57:23;;;;;;;12.13;10.43;;;;;;;;;;4956485;28;20058;-69
2023/06/25 02:59:49;;;;;;;11.20;9.38;;;;;;;;;;5039662;28;20043;-70
2023/06/25 03:02:15;;;;;;;12.27;10.35;;;;;;;;;;4960319;28;20386;-69
2023/06/25 03:04:41;;;;;;;15.05;11.77;;;;;;;;;;4974492;28;20126;-69
2023/06/25 03:07:07;;;;;;;13.95;10.82;;;;;;;;;;5021838;28;20078;-69
2023/06/25 03:09:33;;;;;;;13.35;11.43;;;;;;;;;;5024796;28;20061;-69
2023/06/25 03:11:59;;;;;;;12.57;9.90;;;;;;;;;;4960298;28;20338;-69
2023/06/25 03:14:25;;;;;;;12.68;10.85;;;;;;;;;;4959329;28;20122;-69
2023/06/25 03:16:52;;;;;;;13.48;10.85;;;;;;;;;;4976243;28;20157;-70
2023/06/25 03:19:18;;;;;;;14.82;11.07;;;;;;;;;;4980884;28;20051;-69
2023/06/25 03:21:44;;;;;;;12.45;10.45;;;;;;;;;;4961859;28;20407;-69
2023/06/25 03:24:10;;;;;;;15.35;12.05;;;;;;;;;;5026118;28;20486;-69
2023/06/25 03:26:36;;;;;;;14.40;11.82;;;;;;;;;;4966957;28;20082;-69
2023/06/25 03:29:02;;;;;;;15.07;12.07;;;;;;;;;;5047386;28;20050;-69
2023/06/25 03:31:28;;;;;;;14.45;12.25;;;;;;;;;;4968583;28;20061;-68
2023/06/25 03:33:54;;;;;;;13.90;11.95;;;;;;;;;;4968290;28;20486;-69
2023/06/25 03:36:20;;;;;;;14.63;11.77;;;;;;;;;;4972898;28;20599;-69
2023/06/25 03:38:46;;;;;;;16.33;11.88;;;;;;;;;;5018676;28;20571;-69
2023/06/25 03:41:12;;;;;;;17.73;13.07;;;;;;;;;;5028790;28;20136;-69
2023/06/25 03:43:38;;;;;;;15.98;12.35;;;;;;;;;;5048864;28;20049;-69
2023/06/25 03:46:04;;;;;;;16.67;12.23;;;;;;;;;;5051127;28;20557;-69
2023/06/25 03:48:31;;;;;;;14.02;12.13;;;;;;;;;;5041655;28;20041;-69
2023/06/25 03:50:57;;;;;;;13.35;11.52;;;;;;;;;;5062946;28;20170;-69
2023/06/25 03:53:23;;;;;;;16.38;12.43;;;;;;;;;;5043290;28;20102;-69
2023/06/25 03:55:49;;;;;;;16.02;12.70;;;;;;;;;;5048724;28;20044;-70
2023/06/25 03:58:15;;;;;;;15.13;12.10;;;;;;;;;;5048875;28;20048;-69
2023/06/25 04:00:41;;;;;;;16.27;12.48;;;;;;;;;;5049007;28;20494;-69
2023/06/25 04:03:07;;;;;;;14.98;12.15;;;;;;;;;;5051487;28;20413;-69
2023/06/25 04:05:33;;;;;;;14.73;12.18;;;;;;;;;;5053487;28;20041;-69
2023/06/25 04:07:59;;;;;;;16.05;12.43;;;;;;;;;;5052504;28;20369;-69
2023/06/25 04:10:25;;;;;;;32.65;12.02;;;;;;;;;;5054179;28;20048;-69
2023/06/25 04:12:52;;;;;;;16.88;13.32;;;;;;;;;;5068187;28;20145;-69
2023/06/25 04:15:18;;;;;;;13.80;12.10;;;;;;;;;;5052715;28;20828;-69
2023/06/25 04:17:46;;;;;;;13.20;11.15;;;;;;;;;;5046460;28;20036;-69
2023/06/25 04:20:12;;;;;;;14.10;11.35;;;;;;;;;;5052740;28;20056;-69
2023/06/25 04:22:38;;;;;;;16.52;13.25;;;;;;;;;;5053842;28;20132;-69
2023/06/25 04:25:05;;;;;;;14.05;11.48;;;;;;;;;;5051499;28;20049;-69
2023/06/25 04:27:31;;;;;;;18.73;13.23;;;;;;;;;;5068714;28;20071;-69
2023/06/25 04:29:57;;;;;;;16.75;11.38;;;;;;;;;;5051628;28;20771;-69
2023/06/25 04:32:23;;;;;;;14.60;11.38;;;;;;;;;;5058650;28;20067;-69
2023/06/25 04:34:49;;;;;;;17.40;12.60;;;;;;;;;;5039465;28;20125;-69
2023/06/25 04:37:15;;;;;;;15.75;11.75;;;;;;;;;;5045530;28;20049;-69
2023/06/25 04:39:41;;;;;;;16.75;12.35;;;;;;;;;;5049553;28;20044;-69
2023/06/25 04:42:07;;;;;;;14.55;12.75;;;;;;;;;;4991156;28;20120;-69
2023/06/25 04:44:33;;;;;;;15.05;12.75;;;;;;;;;;4951528;28;20519;-69
2023/06/25 04:46:59;;;;;;;15.73;12.55;;;;;;;;;;4961655;28;20045;-69
2023/06/25 04:49:25;;;;;;;14.57;11.02;;;;;;;;;;4959317;28;20123;-69
2023/06/25 04:51:51;;;;;;;16.83;12.40;;;;;;;;;;4948233;28;20048;-69
2023/06/25 04:54:17;;;;;;;14.70;12.02;;;;;;;;;;4951192;28;20181;-69
2023/06/25 04:56:43;;;;;;;15.30;12.20;;;;;;;;;;4944951;28;20040;-69
2023/06/25 04:59:09;;;;;;;16.25;12.55;;;;;;;;;;4949382;28;20043;-69
2023/06/25 05:01:35;;;;;;;15.15;11.77;;;;;;;;;;4952723;28;20031;-69
2023/06/25 05:04:01;;;;;;;16.50;12.75;;;;;;;;;;4938498;28;20047;-68
2023/06/25 05:06:27;;;;;;;14.70;12.27;;;;;;;;;;4943946;28;20047;-69
2023/06/25 05:08:55;;;;;;;15.05;12.05;;;;;;;;;;4940004;28;20125;-69
2023/06/25 05:11:21;;;;;;;15.15;12.85;;;;;;;;;;4950188;28;20454;-69
2023/06/25 05:13:48;;;;;;;16.02;12.63;;;;;;;;;;4974755;28;20058;-69
2023/06/25 05:16:14;;;;;;;15.50;11.85;;;;;;;;;;4949886;28;20038;-69
2023/06/25 05:18:40;;;;;;;16.00;11.60;;;;;;;;;;4939734;28;20126;-70
2023/06/25 05:21:06;;;;;;;15.88;12.20;;;;;;;;;;4955844;28;20492;-69
2023/06/25 05:23:45;;;;;;;15.98;11.57;;;;;;;;;;4964714;28;20078;-68
2023/06/25 05:26:12;;;;;;;13.80;11.63;;;;;;;;;;4965352;28;20054;-69
2023/06/25 05:28:38;;;;;;;17.45;11.75;;;;;;;;;;4946031;28;20090;-69
2023/06/25 05:31:04;;;;;;;15.35;11.50;;;;;;;;;;4974167;28;20051;-70
2023/06/25 05:33:30;;;;;;;14.57;11.70;;;;;;;;;;4958533;28;20046;-69
2023/06/25 05:35:56;;;;;;;14.30;11.60;;;;;;;;;;4965400;28;20046;-69
2023/06/25 05:38:22;;;;;;;14.75;10.88;;;;;;;;;;4953965;28;20510;-69
2023/06/25 05:40:48;;;;;;;14.27;10.80;;;;;;;;;;4971637;28;20058;-69
2023/06/25 05:43:14;;;;;;;14.40;10.98;;;;;;;;;;4942820;28;20511;-69
2023/06/25 05:45:40;;;;;;;14.00;11.07;;;;;;;;;;4975004;28;20093;-69
2023/06/25 05:48:06;;;;;;;13.10;10.30;;;;;;;;;;4953995;28;20498;-69
2023/06/25 05:50:32;;;;;;;12.07;10.10;;;;;;;;;;4939059;28;20586;-69
2023/06/25 05:52:58;;;;;;;14.32;10.35;;;;;;;;;;4948342;28;20046;-68
2023/06/25 05:55:24;;;;;;;13.68;10.73;;;;;;;;;;4965739;28;20051;-69
2023/06/25 05:57:51;;;;;;;12.63;10.18;;;;;;;;;;4946199;28;20044;-69
2023/06/25 06:00:17;;;;;;;12.60;10.23;;;;;;;;;;4940601;28;20083;-69
2023/06/25 06:02:43;;;;;;;14.75;10.23;;;;;;;;;;4953916;28;20070;-69
2023/06/25 06:05:09;;;;;;;14.55;11.27;;;;;;;;;;4968109;28;20066;-69
2023/06/25 06:07:35;;;;;;;12.98;9.73;;;;;;;;;;4952875;28;20100;-69
2023/06/25 06:10:01;;;;;;;12.15;9.77;;;;;;;;;;4963964;28;20052;-69
2023/06/25 06:12:27;;;;;;;11.90;9.82;;;;;;;;;;4946720;28;20107;-69
2023/06/25 06:14:53;;;;;;;12.70;10.00;;;;;;;;;;4939950;28;20042;-69
2023/06/25 06:17:19;;;;;;;12.60;9.85;;;;;;;;;;4957170;28;20475;-69
2023/06/25 06:19:45;;;;;;;13.52;10.50;;;;;;;;;;4968094;28;20053;-69
2023/06/25 06:22:13;;;;;;;11.75;9.10;;;;;;;;;;4965648;28;20075;-69
2023/06/25 06:24:39;;;;;;;13.57;9.75;;;;;;;;;;4952180;28;20063;-69
2023/06/25 06:27:05;;;;;;;13.73;9.57;;;;;;;;;;4944163;28;20044;-69
2023/06/25 06:29:31;;;;;;;13.40;10.48;;;;;;;;;;4960958;28;20054;-69
2023/06/25 06:31:57;;;;;;;13.60;10.85;;;;;;;;;;4954164;28;20057;-68
2023/06/25 06:34:23;;;;;;;12.98;9.73;;;;;;;;;;4949652;28;20078;-69
2023/06/25 06:36:49;;;;;;;11.57;9.77;;;;;;;;;;4944778;28;20047;-69
2023/06/25 06:39:16;;;;;;;12.25;10.18;;;;;;;;;;4949026;28;20060;-69
2023/06/25 06:41:42;;;;;;;12.93;9.65;;;;;;;;;;4954059;28;20054;-69
2023/06/25 06:44:13;;;;;;;12.38;10.23;;;;;;;;;;5023656;28;20055;-69
2023/06/25 06:46:39;;;;;;;12.52;10.43;;;;;;;;;;5043545;28;20503;-69
2023/06/25 06:49:05;;;;;;;13.30;10.30;;;;;;;;;;5024107;28;20050;-69
2023/06/25 06:51:32;;;;;;;12.18;10.57;;;;;;;;;;4961779;28;20384;-69
2023/06/25 06:53:58;;;;;;;13.15;10.18;;;;;;;;;;5027116;28;20494;-69
2023/06/25 06:56:24;;;;;;;12.07;9.77;;;;;;;;;;5014531;28;20448;-69
2023/06/25 06:58:50;;;;;;;12.25;9.93;;;;;;;;;;4958070;28;20633;-69
2023/06/25 07:01:16;;;;;;;11.75;9.48;;;;;;;;;;4957685;28;20126;-69
2023/06/25 07:03:42;;;;;;;12.00;9.65;;;;;;;;;;5022203;28;20089;-70
2023/06/25 07:06:08;;;;;;;14.35;10.38;;;;;;;;;;4970760;28;20481;-69
2023/06/25 07:08:34;;;;;;;12.55;10.25;;;;;;;;;;4965104;28;20046;-69
2023/06/25 07:11:00;;;;;;;13.30;10.73;;;;;;;;;;5033222;28;20054;-68
2023/06/25 07:13:28;;;;;;;12.45;10.57;;;;;;;;;;4960211;28;20046;-69
2023/06/25 07:15:54;;;;;;;11.95;9.52;;;;;;;;;;4983369;28;20542;-68
2023/06/25 07:18:20;;;;;;;12.60;9.70;;;;;;;;;;4962440;28;20076;-69
2023/06/25 07:20:46;;;;;;;12.40;9.23;;;;;;;;;;4959728;28;20051;-70
2023/06/25 07:23:12;;;;;;;13.68;10.30;;;;;;;;;;5026095;28;20054;-69
2023/06/25 07:25:38;;;;;;;12.43;10.40;;;;;;;;;;4991289;28;20037;-69
2023/06/25 07:28:04;;;;;;;13.00;10.48;;;;;;;;;;5022487;28;20050;-70
2023/06/25 07:30:31;;;;;;;11.38;10.23;;;;;;;;;;5026712;28;20054;-70
2023/06/25 07:32:57;;;;;;;13.18;10.90;;;;;;;;;;4961950;28;20499;-70
2023/06/25 07:35:23;;;;;;;11.85;10.50;;;;;;;;;;5044737;28;20046;-70
2023/06/25 07:37:49;;;;;;;12.75;9.43;;;;;;;;;;4961672;28;20397;-70
2023/06/25 07:40:15;;;;;;;10.80;9.20;;;;;;;;;;4967684;28;20039;-70
2023/06/25 07:42:41;;;;;;;12.02;9.90;;;;;;;;;;4975012;28;20073;-70
2023/06/25 07:45:08;;;;;;;11.90;10.60;;;;;;;;;;4958000;28;20066;-70
2023/06/25 07:47:35;;;;;;;12.00;10.13;;;;;;;;;;5001492;28;20047;-70
2023/06/25 07:50:01;;;;;;;12.57;10.48;;;;;;;;;;4961609;28;20140;-70
2023/06/25 07:52:27;;;;;;;11.40;10.20;;;;;;;;;;4973584;28;20100;-70
2023/06/25 07:54:53;;;;;;;10.90;9.50;;;;;;;;;;4981795;28;20046;-71
2023/06/25 07:57:20;;;;;;;12.40;10.82;;;;;;;;;;4997076;28;20448;-70
2023/06/25 07:59:48;;;;;;;12.63;10.38;;;;;;;;;;5027120;28;20058;-71
2023/06/25 08:02:21;;;;;;;11.65;10.18;;;;;;;;;;5014752;28;20044;-71
2023/06/25 08:04:47;;;;;;;13.52;10.98;;;;;;;;;;5010662;28;20051;-71
2023/06/25 08:07:13;;;;;;;14.55;10.60;;;;;;;;;;5032710;28;20045;-68
2023/06/25 08:09:40;;;;;;;12.10;9.43;;;;;;;;;;5002222;28;20134;-69
2023/06/25 08:12:06;;;;;;;12.45;9.48;;;;;;;;;;4967218;28;20514;-72
2023/06/25 08:14:32;;;;;;;10.27;8.88;;;;;;;;;;4966045;28;20055;-70
2023/06/25 08:16:58;;;;;;;11.85;9.98;;;;;;;;;;4967918;28;20042;-69
2023/06/25 08:19:24;;;;;;;11.45;9.95;;;;;;;;;;4965450;28;20058;-70
2023/06/25 08:21:50;;;;;;;10.85;9.13;;;;;;;;;;4967927;28;20054;-70
2023/06/25 08:24:16;;;;;;;10.65;9.45;;;;;;;;;;5059502;28;20503;-70
2023/06/25 08:26:42;;;;;;;10.77;8.88;;;;;;;;;;5019280;28;20063;-71
2023/06/25 08:29:08;;;;;;;10.95;9.15;;;;;;;;;;4965156;28;20046;-71
2023/06/25 08:31:34;;;;;;;11.27;8.77;;;;;;;;;;4974697;28;20089;-72
2023/06/25 08:34:00;;;;;;;10.27;8.55;;;;;;;;;;4962956;28;20108;-70
2023/06/25 08:36:26;;;;;;;11.00;9.00;;;;;;;;;;4993874;28;20441;-71
2023/06/25 08:38:52;;;;;;;10.35;8.38;;;;;;;;;;4958127;28;20047;-71
2023/06/25 08:41:18;;;;;;;11.95;9.55;;;;;;;;;;4969458;28;20057;-72
2023/06/25 08:43:45;;;;;;;10.75;8.90;;;;;;;;;;4955736;28;20063;-71
2023/06/25 08:46:12;;;;;;;8.73;6.90;;;;;;;;;;4956227;28;20050;-70
2023/06/25 08:48:39;;;;;;;9.73;7.47;;;;;;;;;;4953115;28;20533;-71
2023/06/25 08:51:11;;;;;;;10.25;8.30;;;;;;;;;;4957438;28;20050;-72
2023/06/25 08:53:37;;;;;;;8.90;8.00;;;;;;;;;;4958877;28;20031;-72
2023/06/25 08:56:05;;;;;;;14.07;10.43;;;;;;;;;;4957835;28;20487;-71
2023/06/25 08:58:31;;;;;;;12.13;9.05;;;;;;;;;;5025388;28;20546;-71
2023/06/25 09:00:57;;;;;;;8.73;6.38;;;;;;;;;;5025972;28;20407;-71
2023/06/25 09:03:23;;;;;;;6.65;5.40;;;;;;;;;;4967954;28;20061;-72
2023/06/25 09:05:53;;;;;;;7.40;6.25;;;;;;;;;;4955626;28;20119;-72
2023/06/25 09:08:20;;;;;;;7.45;6.03;;;;;;;;;;5027828;28;20510;-72
2023/06/25 09:10:49;;;;;;;8.07;5.45;;;;;;;;;;4961240;28;20065;-71
2023/06/25 09:13:20;;;;;;;12.07;5.88;;;;;;;;;;4968501;28;20046;-71
2023/06/25 09:15:46;;;;;;;6.43;5.28;;;;;;;;;;4961740;28;20055;-72
2023/06/25 09:18:12;;;;;;;5.93;5.10;;;;;;;;;;5026489;28;20047;-71
2023/06/25 09:20:40;;;;;;;6.00;4.82;;;;;;;;;;5024700;28;20062;-71
2023/06/25 09:23:06;;;;;;;6.20;4.57;;;;;;;;;;4959131;28;20046;-71
2023/06/25 09:25:32;;;;;;;6.22;5.10;;;;;;;;;;4955955;28;20043;-71
2023/06/25 09:27:59;;;;;;;5.60;4.85;;;;;;;;;;4958206;28;20079;-71
2023/06/25 09:30:25;;;;;;;7.10;5.10;;;;;;;;;;4958966;28;20511;-71
2023/06/25 09:32:52;;;;;;;6.00;5.40;;;;;;;;;;4962988;28;20050;-71
2023/06/25 09:35:19;;;;;;;5.50;4.82;;;;;;;;;;4959900;28;20051;-71
2023/06/25 09:37:45;;;;;;;7.97;5.22;;;;;;;;;;5046067;28;20058;-71
2023/06/25 09:40:11;;;;;;;7.60;5.70;;;;;;;;;;5057058;28;20100;-71
2023/06/25 09:42:38;;;;;;;7.30;5.25;;;;;;;;;;4961926;28;20523;-71
2023/06/25 09:45:04;;;;;;;8.32;6.55;;;;;;;;;;4973503;28;20074;-71
2023/06/25 09:47:30;;;;;;;7.15;5.70;;;;;;;;;;4963234;28;20046;-71
2023/06/25 09:49:56;;;;;;;6.30;5.43;;;;;;;;;;4961125;28;20415;-71
2023/06/25 09:52:23;;;;;;;6.57;5.60;;;;;;;;;;5061069;28;20483;-71
2023/06/25 09:54:49;;;;;;;6.72;4.78;;;;;;;;;;5044912;28;20039;-71
2023/06/25 09:57:17;;;;;;;7.75;6.70;;;;;;;;;;5037056;28;20624;-71
2023/06/25 09:59:43;;;;;;;8.55;7.28;;;;;;;;;;4967038;28;20093;-71
2023/06/25 10:02:09;;;;;;;11.48;7.50;;;;;;;;;;5023069;28;20068;-72
2023/06/25 10:04:36;;;;;;;7.07;5.93;;;;;;;;;;4967890;28;20043;-71
2023/06/25 10:07:03;;;;;;;7.00;6.20;;;;;;;;;;4966499;28;20481;-71
2023/06/25 10:09:29;;;;;;;7.40;6.25;;;;;;;;;;4971307;28;20050;-71
2023/06/25 10:11:56;;;;;;;10.05;6.90;;;;;;;;;;5005493;28;20556;-71
2023/06/25 10:14:23;;;;;;;9.05;6.75;;;;;;;;;;4962931;28;20051;-71
2023/06/25 10:16:53;;;;;;;9.32;6.88;;;;;;;;;;4967763;28;20117;-71
2023/06/25 10:19:23;;;;;;;9.25;8.02;;;;;;;;;;4965714;28;20051;-71
2023/06/25 10:22:00;;;;;;;10.38;7.78;;;;;;;;;;4967924;28;20051;-72
2023/06/25 10:24:26;;;;;;;8.60;7.10;;;;;;;;;;5029963;28;20130;-72
2023/06/25 10:26:55;;;;;;;8.95;6.63;;;;;;;;;;5042908;28;20043;-71
2023/06/25 10:29:21;;;;;;;9.02;7.13;;;;;;;;;;5025068;28;20043;-71
2023/06/25 10:31:49;;;;;;;8.40;6.93;;;;;;;;;;5017275;28;20043;-71
2023/06/25 10:34:15;;;;;;;7.55;6.40;;;;;;;;;;5039205;28;20089;-71
2023/06/25 10:36:50;;;;;;;8.93;6.97;;;;;;;;;;5056381;28;20051;-71
2023/06/25 10:39:17;;;;;;;8.50;6.82;;;;;;;;;;4956854;28;20058;-71
2023/06/25 10:41:46;;;;;;;10.25;7.30;;;;;;;;;;4953965;28;20386;-71
2023/06/25 10:44:12;;;;;;;8.90;6.50;;;;;;;;;;4970486;28;20137;-71
2023/06/25 10:46:38;;;;;;;8.07;6.13;;;;;;;;;;4953271;28;20555;-71
2023/06/25 10:49:05;;;;;;;7.43;5.88;;;;;;;;;;4957297;28;20043;-72
2023/06/25 10:51:34;;;;;;;9.23;6.18;;;;;;;;;;5016627;28;20556;-73
2023/06/25 10:54:00;;;;;;;7.90;5.93;;;;;;;;;;4966705;28;21015;-72
2023/06/25 10:56:26;;;;;;;10.00;6.70;;;;;;;;;;4963476;28;20043;-72
2023/06/25 10:58:56;;;;;;;7.88;5.93;;;;;;;;;;4962124;28;20558;-72
2023/06/25 11:01:22;;;;;;;8.93;5.88;;;;;;;;;;4958930;28;20049;-72
2023/06/25 11:03:48;;;;;;;10.52;6.65;;;;;;;;;;4960595;28;20355;-72
2023/06/25 11:06:14;;;;;;;7.57;6.20;;;;;;;;;;5021789;28;20051;-72
2023/06/25 11:08:44;;;;;;;9.40;6.40;;;;;;;;;;4964147;28;20093;-72
2023/06/25 11:11:11;;;;;;;7.53;6.13;;;;;;;;;;4967492;28;20096;-71
2023/06/25 11:13:37;;;;;;;8.30;6.40;;;;;;;;;;4968678;28;20035;-72
2023/06/25 11:16:05;;;;;;;7.40;6.00;;;;;;;;;;4962566;28;20771;-73
2023/06/25 11:18:31;;;;;;;7.93;6.10;;;;;;;;;;4975082;28;20208;-71
2023/06/25 11:20:58;;;;;;;9.18;6.07;;;;;;;;;;5027517;28;20153;-71
2023/06/25 11:23:24;;;;;;;9.10;6.18;;;;;;;;;;5018536;28;20104;-71
2023/06/25 11:25:50;;;;;;;6.90;5.63;;;;;;;;;;4958411;28;20047;-71
2023/06/25 11:28:16;;;;;;;9.68;6.55;;;;;;;;;;5015104;28;20062;-72
2023/06/25 11:30:43;;;;;;;10.13;6.63;;;;;;;;;;4970503;28;20085;-72
2023/06/25 11:33:16;;;;;;;10.75;6.38;;;;;;;;;;5039672;28;20043;-71
2023/06/25 11:35:49;;;;;;;9.20;6.22;;;;;;;;;;5038790;28;20065;-71
2023/06/25 11:38:24;;;;;;;11.35;6.07;;;;;;;;;;4958351;28;20130;-70
2023/06/25 11:40:53;;;;;;;9.77;6.20;;;;;;;;;;4954213;28;20073;-70
2023/06/25 11:43:22;;;;;;;11.65;7.50;;;;;;;;;;4956406;28;20387;-72
2023/06/25 11:45:48;;;;;;;10.73;6.88;;;;;;;;;;4948450;28;20046;-70
2023/06/25 11:48:15;;;;;;;8.93;6.28;;;;;;;;;;5021192;28;20050;-70
2023/06/25 11:50:45;;;;;;;9.93;6.20;;;;;;;;;;5057234;28;20551;-72
2023/06/25 11:53:12;;;;;;;8.63;5.82;;;;;;;;;;4957764;28;20058;-71
2023/06/25 11:55:39;;;;;;;8.82;5.75;;;;;;;;;;5032726;28;20046;-72
2023/06/25 11:58:05;;;;;;;8.98;5.63;;;;;;;;;;4962929;28;20487;-71
2023/06/25 12:00:31;;;;;;;9.13;5.97;;;;;;;;;;4951728;28;20532;-71
2023/06/25 12:02:57;;;;;;;8.80;5.70;;;;;;;;;;5033758;28;20104;-71
2023/06/25 12:05:23;;;;;;;7.53;5.47;;;;;;;;;;4963628;28;20034;-71
2023/06/25 12:07:49;;;;;;;7.40;5.60;;;;;;;;;;4960998;28;20563;-73
2023/06/25 12:10:15;;;;;;;8.35;5.32;;;;;;;;;;4963391;28;20047;-72
2023/06/25 12:12:43;;;;;;;7.38;5.07;;;;;;;;;;4952166;28;20050;-72
2023/06/25 12:15:10;;;;;;;6.63;4.57;;;;;;;;;;5033826;28;20487;-72
2023/06/25 12:17:36;;;;;;;6.50;4.60;;;;;;;;;;4965263;28;20053;-72
2023/06/25 12:20:04;;;;;;;6.38;4.05;;;;;;;;;;5032127;28;20051;-73
2023/06/25 12:22:30;;;;;;;5.82;4.03;;;;;;;;;;5017431;28;20433;-71
2023/06/25 12:24:56;;;;;;;4.30;3.80;;;;;;;;;;4963946;28;20129;-72
2023/06/25 12:27:22;;;;;;;4.90;4.13;;;;;;;;;;4971517;28;20051;-72
2023/06/25 12:29:48;;;;;;;5.78;4.22;;;;;;;;;;4960924;28;20047;-73
2023/06/25 12:32:14;;;;;;;5.72;3.92;;;;;;;;;;5012583;28;20437;-71
2023/06/25 12:34:40;;;;;;;5.32;4.38;;;;;;;;;;5036149;28;20075;-73
2023/06/25 12:37:06;;;;;;;5.68;4.50;;;;;;;;;;5024936;28;20062;-72
2023/06/25 12:39:32;;;;;;;4.20;3.80;;;;;;;;;;4960108;28;20398;-72
2023/06/25 12:41:58;;;;;;;5.10;4.53;;;;;;;;;;4961547;28;20146;-72
2023/06/25 12:44:24;;;;;;;5.30;4.47;;;;;;;;;;5063638;28;20047;-72
2023/06/25 12:46:50;;;;;;;6.63;4.85;;;;;;;;;;4960901;28;20054;-72
2023/06/25 12:49:16;;;;;;;7.05;4.88;;;;;;;;;;4957724;28;20055;-73
2023/06/25 12:51:42;;;;;;;6.88;5.43;;;;;;;;;;5025879;28;20448;-73
2023/06/25 12:54:08;;;;;;;6.75;5.13;;;;;;;;;;4961759;28;20444;-70
2023/06/25 12:56:35;;;;;;;7.38;4.90;;;;;;;;;;5034532;28;20082;-70
2023/06/25 12:59:01;;;;;;;5.70;4.55;;;;;;;;;;5050427;28;20398;-70
2023/06/25 13:01:27;;;;;;;6.30;4.60;;;;;;;;;;5041508;28;20042;-72
2023/06/25 13:03:53;;;;;;;7.15;4.45;;;;;;;;;;4960712;28;20499;-72
2023/06/25 13:06:20;;;;;;;6.13;4.28;;;;;;;;;;4955048;28;20139;-72
2023/06/25 13:08:46;;;;;;;5.30;4.32;;;;;;;;;;4957274;28;20146;-73
2023/06/25 13:11:12;;;;;;;6.20;4.35;;;;;;;;;;4972688;28;20082;-72
2023/06/25 13:13:38;;;;;;;4.65;4.15;;;;;;;;;;5058110;28;20456;-72
2023/06/25 13:16:04;;;;;;;5.15;4.30;;;;;;;;;;4992868;28;20039;-73
2023/06/25 13:18:30;;;;;;;5.20;4.28;;;;;;;;;;4977897;28;20130;-72
2023/06/25 13:20:56;;;;;;;4.32;3.80;;;;;;;;;;5063766;28;20147;-72
2023/06/25 13:23:22;;;;;;;4.00;3.60;;;;;;;;;;5024536;28;20069;-72
2023/06/25 13:25:49;;;;;;;4.57;3.55;;;;;;;;;;4960441;28;20039;-72
2023/06/25 13:28:15;;;;;;;4.25;3.30;;;;;;;;;;4963936;28;20038;-72
2023/06/25 13:30:41;;;;;;;3.70;3.08;;;;;;;;;;4957155;28;20560;-72
2023/06/25 13:33:07;;;;;;;3.85;3.42;;;;;;;;;;5028836;28;20050;-72
2023/06/25 13:35:33;;;;;;;4.40;3.33;;;;;;;;;;4962598;28;20035;-72
2023/06/25 13:37:59;;;;;;;3.72;3.38;;;;;;;;;;4972622;28;20043;-72
2023/06/25 13:40:25;;;;;;;9.02;6.65;;;;;;;;;;4989576;28;20047;-72
2023/06/25 13:42:51;;;;;;;4.47;3.60;;;;;;;;;;5030726;28;20550;-72
2023/06/25 13:45:17;;;;;;;4.85;4.03;;;;;;;;;;4967629;28;20491;-72
2023/06/25 13:47:43;;;;;;;6.95;3.63;;;;;;;;;;4969394;28;20039;-72
2023/06/25 13:50:09;;;;;;;3.67;3.15;;;;;;;;;;4980820;28;20050;-72
2023/06/25 13:52:36;;;;;;;3.83;2.90;;;;;;;;;;4969255;28;20047;-72
2023/06/25 13:55:02;;;;;;;3.30;3.00;;;;;;;;;;4994828;28;20414;-72
2023/06/25 13:57:28;;;;;;;3.50;2.80;;;;;;;;;;5016906;28;20418;-72
2023/06/25 13:59:54;;;;;;;3.63;3.00;;;;;;;;;;5055370;28;20043;-72
2023/06/25 14:02:20;;;;;;;3.67;3.17;;;;;;;;;;4965878;28;20053;-72
2023/06/25 14:04:47;;;;;;;3.90;3.15;;;;;;;;;;4966948;28;20489;-71
2023/06/25 14:07:13;;;;;;;4.05;3.20;;;;;;;;;;4967931;28;20057;-71
2023/06/25 14:09:39;;;;;;;3.30;3.00;;;;;;;;;;4976507;28;20047;-71
2023/06/25 14:12:05;;;;;;;3.45;3.10;;;;;;;;;;5004928;28;20471;-71
2023/06/25 14:14:31;;;;;;;5.03;3.10;;;;;;;;;;5034461;28;20053;-72
2023/06/25 14:16:57;;;;;;;3.92;3.53;;;;;;;;;;5023830;28;20039;-73
2023/06/25 14:19:23;;;;;;;3.67;3.22;;;;;;;;;;4966949;28;20038;-75
2023/06/25 14:21:49;;;;;;;4.22;3.47;;;;;;;;;;5022979;28;20385;-74
2023/06/25 14:24:15;;;;;;;3.95;3.55;;;;;;;;;;4963129;28;20039;-74
2023/06/25 14:26:41;;;;;;;3.95;3.20;;;;;;;;;;4963322;28;20050;-72